createdAt,value
2022-08-22T00:02:23.634Z,0.63
2022-08-22T00:02:41.538Z,1.65
2022-08-22T00:02:57.967Z,0.85
2022-08-22T00:02:58.275Z,0.90
2022-08-22T00:03:07.477Z,0.80
2022-08-22T00:04:58.380Z,1.02
2022-08-22T00:07:37.056Z,0.98
2022-08-22T00:10:25.046Z,0.80
2022-08-22T00:13:00.178Z,0.73
2022-08-22T00:15:43.035Z,1.00
2022-08-22T00:18:21.490Z,0.93
2022-08-22T00:20:56.919Z,0.90
2022-08-22T00:23:33.303Z,0.88
2022-08-22T00:26:05.970Z,0.80
2022-08-22T00:28:40.090Z,1.40
2022-08-22T00:31:18.739Z,0.88
2022-08-22T00:33:54.451Z,1.15
2022-08-22T00:36:35.543Z,0.57
2022-08-22T00:39:13.131Z,0.88
2022-08-22T00:42:13.472Z,0.73
2022-08-22T00:45:00.951Z,1.00
2022-08-22T00:47:58.767Z,1.10
2022-08-22T00:50:56.728Z,0.80
2022-08-22T00:53:43.961Z,0.90
2022-08-22T00:56:46.050Z,0.80
2022-08-22T00:59:44.015Z,0.90
2022-08-22T01:02:30.248Z,0.85
2022-08-22T01:05:13.945Z,0.90
2022-08-22T01:08:00.150Z,1.00
2022-08-22T01:10:43.632Z,0.90
2022-08-22T01:13:30.744Z,0.80
2022-08-22T01:16:12.066Z,1.23
2022-08-22T01:19:09.859Z,0.95
2022-08-22T01:22:32.505Z,0.85
2022-08-22T01:25:38.727Z,0.95
2022-08-22T01:28:32.917Z,1.10
2022-08-22T01:31:35.072Z,1.00
2022-08-22T01:34:42.207Z,0.98
2022-08-22T01:37:44.861Z,1.05
2022-08-22T01:40:53.634Z,0.95
2022-08-22T01:43:51.352Z,0.77
2022-08-22T01:46:36.368Z,0.70
2022-08-22T01:49:17.099Z,0.80
2022-08-22T01:51:52.880Z,0.82
2022-08-22T01:54:35.079Z,0.95
2022-08-22T01:59:42.520Z,1.00
2022-08-22T02:04:55.202Z,0.80
2022-08-22T02:07:32.038Z,0.90
2022-08-22T02:10:15.738Z,0.95
2022-08-22T02:12:51.093Z,0.88
2022-08-22T02:15:24.950Z,1.00
2022-08-22T02:18:06.139Z,1.27
2022-08-22T02:20:40.633Z,0.93
2022-08-22T02:23:20.655Z,1.17
2022-08-22T02:25:54.157Z,1.15
2022-08-22T02:28:34.065Z,1.15
2022-08-22T02:31:07.344Z,1.00
2022-08-22T02:33:43.944Z,1.00
2022-08-22T02:36:19.845Z,1.40
2022-08-22T02:38:58.215Z,1.13
2022-08-22T02:41:32.601Z,0.93
2022-08-22T02:44:04.808Z,1.00
2022-08-22T02:46:47.109Z,1.05
2022-08-22T02:49:24.577Z,1.00
2022-08-22T02:52:03.448Z,1.10
2022-08-22T02:54:39.586Z,0.90
2022-08-22T02:57:14.430Z,0.80
2022-08-22T03:00:31.447Z,0.80
2022-08-22T03:03:08.185Z,0.88
2022-08-22T03:05:51.816Z,1.17
2022-08-22T03:11:08.949Z,1.30
2022-08-22T03:13:53.669Z,1.20
2022-08-22T03:16:30.554Z,1.25
2022-08-22T03:19:05.793Z,1.30
2022-08-22T03:21:38.302Z,1.00
2022-08-22T03:24:13.694Z,0.90
2022-08-22T03:26:50.679Z,1.30
2022-08-22T03:29:23.881Z,1.10
2022-08-22T03:32:14.772Z,0.90
2022-08-22T03:34:57.113Z,1.27
2022-08-22T03:37:33.900Z,1.00
2022-08-22T03:40:07.568Z,1.27
2022-08-22T03:43:08.491Z,1.17
2022-08-22T03:46:13.543Z,1.17
2022-08-22T03:49:16.807Z,1.10
2022-08-22T03:52:07.818Z,1.00
2022-08-22T03:55:10.295Z,1.20
2022-08-22T03:58:28.234Z,1.13
2022-08-22T04:01:35.881Z,1.23
2022-08-22T04:04:40.203Z,1.33
2022-08-22T04:07:55.189Z,1.13
2022-08-22T04:10:56.640Z,1.20
2022-08-22T04:13:50.428Z,1.08
2022-08-22T04:16:44.254Z,1.40
2022-08-22T04:19:36.099Z,1.35
2022-08-22T04:22:27.251Z,1.17
2022-08-22T04:25:07.578Z,1.45
2022-08-22T04:27:44.020Z,1.13
2022-08-22T04:30:26.933Z,1.40
2022-08-22T04:33:02.892Z,1.25
2022-08-22T04:35:35.211Z,1.33
2022-08-22T04:38:09.266Z,1.90
2022-08-22T04:40:44.893Z,1.50
2022-08-22T04:43:21.036Z,1.25
2022-08-22T04:45:54.870Z,1.50
2022-08-22T04:48:30.646Z,1.33
2022-08-22T04:51:04.027Z,1.58
2022-08-22T04:56:17.589Z,1.20
2022-08-22T04:58:50.051Z,1.85
2022-08-22T05:01:21.600Z,1.60
2022-08-22T05:03:58.483Z,1.55
2022-08-22T05:06:30.319Z,1.50
2022-08-22T05:09:02.320Z,1.67
2022-08-22T05:11:32.682Z,1.80
2022-08-22T05:14:04.144Z,1.90
2022-08-22T05:16:38.219Z,1.55
2022-08-22T05:19:16.765Z,1.30
2022-08-22T05:21:48.343Z,1.50
2022-08-22T05:24:28.076Z,1.23
2022-08-22T05:27:00.558Z,1.20
2022-08-22T05:29:31.290Z,2.35
2022-08-22T05:32:04.657Z,1.48
2022-08-22T05:37:12.607Z,1.45
2022-08-22T05:39:46.978Z,1.73
2022-08-22T05:42:19.783Z,1.40
2022-08-22T05:44:48.097Z,1.58
2022-08-22T05:47:23.252Z,2.03
2022-08-22T05:50:00.108Z,1.40
2022-08-22T05:52:42.979Z,1.50
2022-08-22T05:55:22.669Z,1.70
2022-08-22T05:57:58.902Z,1.25
2022-08-22T06:00:34.020Z,1.50
2022-08-22T06:03:15.315Z,1.55
2022-08-22T06:05:49.027Z,1.33
2022-08-22T06:08:24.474Z,1.50
2022-08-22T06:10:56.154Z,1.38
2022-08-22T06:13:33.165Z,1.50
2022-08-22T06:16:11.723Z,1.52
2022-08-22T06:18:43.409Z,1.65
2022-08-22T06:21:20.008Z,1.20
2022-08-22T06:23:53.209Z,1.60
2022-08-22T06:28:55.270Z,1.13
2022-08-22T06:31:30.086Z,1.10
2022-08-22T06:34:04.196Z,1.50
2022-08-22T06:36:36.316Z,1.10
2022-08-22T06:39:16.510Z,1.25
2022-08-22T06:41:50.935Z,1.20
2022-08-22T06:44:23.439Z,1.30
2022-08-22T06:46:55.186Z,1.75
2022-08-22T06:49:25.949Z,1.40
2022-08-22T06:52:01.337Z,1.38
2022-08-22T06:54:34.848Z,1.33
2022-08-22T06:57:06.339Z,1.20
2022-08-22T06:59:38.824Z,1.25
2022-08-22T07:02:23.768Z,1.08
2022-08-22T07:04:53.027Z,1.70
2022-08-22T07:07:27.123Z,1.27
2022-08-22T07:09:57.602Z,1.30
2022-08-22T07:12:30.676Z,1.40
2022-08-22T07:15:09.901Z,1.48
2022-08-22T07:17:40.682Z,1.30
2022-08-22T07:20:24.913Z,1.40
2022-08-22T07:22:58.875Z,2.20
2022-08-22T07:25:28.526Z,1.58
2022-08-22T07:28:09.931Z,1.80
2022-08-22T07:30:55.814Z,1.50
2022-08-22T07:33:40.279Z,2.00
2022-08-22T07:36:31.813Z,2.10
2022-08-22T07:39:20.142Z,1.85
2022-08-22T07:42:01.144Z,2.20
2022-08-22T07:44:34.031Z,2.15
2022-08-22T07:47:06.744Z,2.03
2022-08-22T07:49:39.321Z,1.88
2022-08-22T07:52:19.040Z,1.83
2022-08-22T07:54:53.679Z,2.20
2022-08-22T07:57:26.631Z,2.30
2022-08-22T07:59:59.155Z,2.30
2022-08-22T08:02:28.294Z,2.20
2022-08-22T08:04:58.781Z,2.38
2022-08-22T08:07:32.112Z,2.00
2022-08-22T08:10:12.416Z,2.28
2022-08-22T08:12:45.065Z,2.58
2022-08-22T08:15:27.381Z,2.15
2022-08-22T08:18:00.530Z,2.10
2022-08-22T08:20:32.232Z,2.17
2022-08-22T08:23:01.252Z,2.40
2022-08-22T08:25:33.546Z,2.10
2022-08-22T08:28:19.714Z,2.20
2022-08-22T08:30:55.373Z,2.08
2022-08-22T08:33:26.991Z,2.20
2022-08-22T08:36:02.349Z,1.67
2022-08-22T08:38:38.885Z,1.60
2022-08-22T08:41:46.835Z,2.08
2022-08-22T08:44:28.540Z,1.70
2022-08-22T08:47:14.977Z,1.98
2022-08-22T08:50:01.033Z,1.35
2022-08-22T08:52:41.533Z,1.80
2022-08-22T08:55:22.675Z,1.85
2022-08-22T08:58:10.294Z,1.60
2022-08-22T09:00:55.643Z,1.38
2022-08-22T09:03:57.387Z,1.50
2022-08-22T09:06:54.756Z,1.85
2022-08-22T09:09:41.051Z,1.58
2022-08-22T09:12:32.473Z,1.73
2022-08-22T09:15:22.650Z,1.70
2022-08-22T09:18:28.958Z,1.80
2022-08-22T09:21:31.222Z,1.70
2022-08-22T09:24:35.338Z,1.48
2022-08-22T09:27:10.216Z,1.42
2022-08-22T09:29:51.659Z,1.80
2022-08-22T09:32:41.027Z,1.77
2022-08-22T09:35:25.058Z,1.50
2022-08-22T09:38:19.589Z,1.55
2022-08-22T09:40:55.131Z,1.60
2022-08-22T09:43:34.603Z,1.50
2022-08-22T09:46:16.607Z,1.90
2022-08-22T09:49:08.723Z,1.10
2022-08-22T09:51:42.868Z,1.27
2022-08-22T09:54:21.473Z,1.30
2022-08-22T09:57:16.955Z,1.60
2022-08-22T10:00:22.300Z,1.20
2022-08-22T10:03:02.589Z,1.55
2022-08-22T10:05:44.341Z,1.10
2022-08-22T10:08:26.241Z,1.97
2022-08-22T10:11:15.480Z,1.17
2022-08-22T10:13:57.403Z,1.20
2022-08-22T10:16:40.961Z,1.63
2022-08-22T10:19:18.022Z,1.27
2022-08-22T10:22:19.228Z,1.13
2022-08-22T10:24:55.383Z,1.17
2022-08-22T10:27:39.723Z,1.10
2022-08-22T10:30:13.274Z,1.20
2022-08-22T10:32:49.905Z,1.25
2022-08-22T10:35:27.674Z,1.42
2022-08-22T10:38:00.667Z,1.50
2022-08-22T10:40:34.297Z,1.30
2022-08-22T10:43:10.852Z,1.48
2022-08-22T10:45:44.610Z,1.50
2022-08-22T10:48:35.549Z,1.35
2022-08-22T10:51:09.949Z,1.25
2022-08-22T10:53:58.608Z,1.65
2022-08-22T10:56:34.787Z,1.10
2022-08-22T10:59:17.948Z,1.55
2022-08-22T11:01:54.585Z,1.15
2022-08-22T11:04:44.913Z,1.45
2022-08-22T11:07:44.577Z,1.63
2022-08-22T11:10:28.769Z,1.05
2022-08-22T11:13:11.831Z,1.50
2022-08-22T11:16:10.739Z,1.38
2022-08-22T11:19:15.106Z,1.35
2022-08-22T11:21:51.889Z,1.13
2022-08-22T11:24:55.230Z,1.10
2022-08-22T11:27:39.808Z,1.23
2022-08-22T11:30:18.697Z,1.30
2022-08-22T11:33:17.757Z,1.00
2022-08-22T11:35:53.060Z,1.25
2022-08-22T11:38:36.184Z,1.20
2022-08-22T11:41:13.270Z,1.17
2022-08-22T11:43:57.410Z,1.30
2022-08-22T11:46:31.336Z,1.10
2022-08-22T11:49:32.630Z,1.35
2022-08-22T11:52:22.581Z,1.08
2022-08-22T11:55:20.000Z,1.27
2022-08-22T11:57:51.987Z,1.27
2022-08-22T12:00:33.446Z,1.02
2022-08-22T12:03:23.600Z,1.20
2022-08-22T12:05:57.845Z,1.40
2022-08-22T12:08:59.668Z,1.48
2022-08-22T12:11:37.895Z,1.10
2022-08-22T12:14:09.275Z,1.30
2022-08-22T12:16:49.488Z,1.30
2022-08-22T12:19:28.016Z,1.63
2022-08-22T12:22:48.698Z,1.58
2022-08-22T12:25:31.743Z,1.25
2022-08-22T12:28:15.851Z,1.20
2022-08-22T12:30:54.803Z,1.23
2022-08-22T12:33:44.588Z,0.90
2022-08-22T12:36:37.578Z,1.30
2022-08-22T12:39:32.325Z,1.20
2022-08-22T12:42:19.299Z,1.33
2022-08-22T12:45:04.259Z,1.10
2022-08-22T12:47:43.773Z,1.05
2022-08-22T12:50:31.658Z,1.00
2022-08-22T12:53:20.306Z,1.48
2022-08-22T12:56:03.949Z,1.13
2022-08-22T12:58:46.608Z,1.27
2022-08-22T13:01:20.482Z,1.10
2022-08-22T13:03:57.736Z,1.08
2022-08-22T13:07:07.563Z,1.02
2022-08-22T13:09:38.656Z,1.20
2022-08-22T13:12:19.906Z,1.20
2022-08-22T13:14:53.600Z,1.17
2022-08-22T13:17:25.298Z,1.20
2022-08-22T13:22:34.020Z,0.98
2022-08-22T13:25:08.700Z,1.15
2022-08-22T13:27:51.102Z,1.17
2022-08-22T13:30:23.661Z,1.10
2022-08-22T13:32:55.860Z,1.48
2022-08-22T13:35:35.240Z,1.10
2022-08-22T13:38:14.399Z,0.98
2022-08-22T13:40:48.645Z,0.93
2022-08-22T13:43:22.468Z,0.80
2022-08-22T13:45:55.708Z,1.13
2022-08-22T13:48:31.371Z,1.00
2022-08-22T13:51:08.111Z,1.13
2022-08-22T13:53:49.778Z,0.95
2022-08-22T13:56:47.206Z,1.73
2022-08-22T13:59:49.149Z,0.90
2022-08-22T14:02:22.629Z,1.33
2022-08-22T14:05:04.029Z,1.20
2022-08-22T14:07:46.167Z,1.20
2022-08-22T14:10:25.041Z,1.00
2022-08-22T14:13:31.041Z,1.27
2022-08-22T14:16:04.163Z,1.20
2022-08-22T14:18:45.512Z,1.23
2022-08-22T14:21:26.126Z,1.17
2022-08-22T14:24:01.026Z,0.90
2022-08-22T14:26:37.477Z,1.10
2022-08-22T14:29:19.141Z,1.17
2022-08-22T14:31:58.024Z,1.00
2022-08-22T14:34:28.935Z,1.10
2022-08-22T14:37:02.561Z,1.27
2022-08-22T14:39:37.194Z,1.10
2022-08-22T14:42:18.866Z,1.33
2022-08-22T14:45:06.491Z,0.85
2022-08-22T14:48:13.972Z,1.25
2022-08-22T14:50:53.155Z,1.40
2022-08-22T14:53:27.831Z,0.90
2022-08-22T14:56:01.008Z,0.93
2022-08-22T14:58:35.080Z,1.00
2022-08-22T15:01:12.651Z,1.42
2022-08-22T15:03:44.807Z,1.08
2022-08-22T15:06:30.333Z,0.85
2022-08-22T15:09:07.675Z,1.23
2022-08-22T15:11:42.135Z,1.20
2022-08-22T15:14:22.950Z,1.10
2022-08-22T15:16:56.090Z,1.00
2022-08-22T15:19:28.402Z,1.00
2022-08-22T15:22:11.262Z,1.13
2022-08-22T15:24:44.426Z,0.93
2022-08-22T15:27:13.421Z,1.10
2022-08-22T15:29:51.665Z,0.90
2022-08-22T15:32:23.155Z,1.20
2022-08-22T15:35:03.464Z,1.23
2022-08-22T15:37:34.328Z,1.13
2022-08-22T15:40:12.670Z,1.10
2022-08-22T15:42:45.256Z,1.10
2022-08-22T15:45:29.978Z,1.00
2022-08-22T15:48:01.393Z,1.13
2022-08-22T15:50:33.614Z,0.98
2022-08-22T15:53:17.568Z,1.25
2022-08-22T15:56:27.876Z,1.00
2022-08-22T15:59:21.425Z,1.30
2022-08-22T16:01:56.515Z,0.93
2022-08-22T16:04:43.487Z,1.10
2022-08-22T16:07:26.492Z,1.10
2022-08-22T16:12:31.214Z,1.23
2022-08-22T16:15:00.665Z,1.17
2022-08-22T16:17:53.267Z,0.95
2022-08-22T16:20:53.024Z,1.02
2022-08-22T16:23:21.447Z,1.02
2022-08-22T16:26:15.208Z,1.10
2022-08-22T16:28:58.304Z,1.00
2022-08-22T16:31:31.366Z,1.10
2022-08-22T16:34:22.950Z,1.10
2022-08-22T16:37:14.652Z,1.00
2022-08-22T16:39:45.762Z,1.23
2022-08-22T16:42:27.161Z,1.20
2022-08-22T16:45:11.701Z,1.10
2022-08-22T16:47:52.194Z,1.00
2022-08-22T16:50:35.104Z,1.30
2022-08-22T16:53:09.374Z,0.95
2022-08-22T16:55:50.209Z,1.17
2022-08-22T16:58:56.958Z,1.00
2022-08-22T17:01:43.021Z,1.08
2022-08-22T17:04:20.588Z,1.00
2022-08-22T17:07:03.206Z,1.35
2022-08-22T17:09:52.478Z,1.10
2022-08-22T17:12:30.561Z,1.23
2022-08-22T17:15:13.137Z,1.00
2022-08-22T17:17:56.901Z,1.00
2022-08-22T17:20:35.855Z,0.93
2022-08-22T17:23:14.220Z,0.90
2022-08-22T17:26:00.211Z,1.10
2022-08-22T17:28:40.742Z,1.15
2022-08-22T17:31:16.260Z,1.35
2022-08-22T17:34:01.835Z,1.63
2022-08-22T17:36:42.976Z,1.20
2022-08-22T17:39:25.677Z,1.10
2022-08-22T17:42:05.541Z,1.00
2022-08-22T17:44:46.762Z,1.20
2022-08-22T17:47:19.772Z,1.10
2022-08-22T17:49:56.234Z,1.17
2022-08-22T17:52:31.130Z,1.30
2022-08-22T17:55:03.720Z,1.02
2022-08-22T17:57:37.034Z,1.55
2022-08-22T18:00:10.975Z,1.00
2022-08-22T18:02:47.756Z,1.20
2022-08-22T18:05:21.402Z,1.30
2022-08-22T18:08:07.023Z,1.30
2022-08-22T18:10:45.564Z,0.95
2022-08-22T18:13:22.422Z,1.25
2022-08-22T18:15:54.963Z,1.48
2022-08-22T18:18:31.513Z,1.30
2022-08-22T18:21:04.029Z,1.40
2022-08-22T18:23:40.515Z,1.30
2022-08-22T18:26:21.495Z,1.25
2022-08-22T18:28:58.279Z,1.90
2022-08-22T18:31:41.458Z,1.77
2022-08-22T18:36:55.582Z,1.38
2022-08-22T18:39:28.712Z,1.40
2022-08-22T18:42:03.215Z,1.40
2022-08-22T18:44:35.138Z,1.55
2022-08-22T18:47:12.890Z,1.60
2022-08-22T18:49:45.777Z,1.23
2022-08-22T18:52:33.900Z,1.30
2022-08-22T18:55:38.232Z,1.52
2022-08-22T18:58:29.814Z,1.10
2022-08-22T19:01:18.408Z,1.15
2022-08-22T19:04:10.180Z,1.58
2022-08-22T19:06:49.478Z,2.67
2022-08-22T19:09:58.891Z,1.80
2022-08-22T19:12:50.157Z,1.40
2022-08-22T19:15:33.691Z,1.40
2022-08-22T19:18:23.247Z,1.27
2022-08-22T19:21:37.925Z,1.40
2022-08-22T19:24:08.438Z,1.45
2022-08-22T19:26:43.341Z,1.27
2022-08-22T19:29:48.478Z,1.35
2022-08-22T19:32:50.878Z,1.25
2022-08-22T19:35:23.451Z,1.20
2022-08-22T19:37:57.311Z,1.27
2022-08-22T19:40:55.581Z,1.38
2022-08-22T19:43:36.845Z,1.40
2022-08-22T19:46:09.073Z,1.40
2022-08-22T19:48:47.707Z,1.47
2022-08-22T19:51:32.450Z,1.25
2022-08-22T19:54:16.838Z,1.60
2022-08-22T19:56:59.742Z,1.20
2022-08-22T19:59:40.400Z,1.58
2022-08-22T20:02:33.503Z,1.20
2022-08-22T20:05:30.839Z,1.17
2022-08-22T20:08:17.481Z,1.45
2022-08-22T20:10:58.615Z,1.25
2022-08-22T20:13:29.180Z,1.45
2022-08-22T20:16:19.791Z,1.20
2022-08-22T20:19:20.135Z,1.70
2022-08-22T20:21:56.874Z,1.40
2022-08-22T20:24:37.766Z,1.27
2022-08-22T20:27:14.952Z,1.70
2022-08-22T20:29:52.315Z,1.58
2022-08-22T20:32:23.050Z,1.15
2022-08-22T20:34:56.995Z,1.30
2022-08-22T20:37:56.137Z,1.50
2022-08-22T20:40:56.736Z,1.42
2022-08-22T20:43:21.376Z,1.20
2022-08-22T20:48:23.839Z,1.30
2022-08-22T20:50:52.750Z,1.20
2022-08-22T20:53:21.927Z,1.13
2022-08-22T20:55:56.062Z,1.25
2022-08-22T20:58:27.608Z,1.13
2022-08-22T21:01:00.117Z,1.35
2022-08-22T21:03:38.290Z,1.40
2022-08-22T21:06:15.158Z,1.30
2022-08-22T21:08:44.471Z,1.10
2022-08-22T21:11:40.689Z,1.23
2022-08-22T21:14:22.704Z,1.40
2022-08-22T21:16:51.990Z,1.30
2022-08-22T21:19:24.967Z,1.20
2022-08-22T21:21:53.569Z,1.02
2022-08-22T21:24:21.765Z,1.15
2022-08-22T21:26:54.985Z,1.10
2022-08-22T21:29:27.546Z,1.05
2022-08-22T21:32:09.860Z,1.10
2022-08-22T21:34:43.927Z,1.23
2022-08-22T21:37:16.335Z,1.08
2022-08-22T21:39:47.059Z,1.10
2022-08-22T21:42:24.667Z,1.33
2022-08-22T21:44:57.775Z,0.90
2022-08-22T21:50:07.540Z,1.05
2022-08-22T21:52:37.420Z,1.13
2022-08-22T21:55:25.635Z,1.00
2022-08-22T21:58:34.965Z,1.00
2022-08-22T22:01:29.303Z,1.40
2022-08-22T22:03:59.062Z,1.02
2022-08-22T22:06:28.052Z,0.80
2022-08-22T22:08:56.672Z,1.33
2022-08-22T22:11:24.899Z,0.88
2022-08-22T22:13:54.818Z,1.20
2022-08-22T22:16:27.359Z,0.93
2022-08-22T22:18:55.955Z,1.05
2022-08-22T22:21:24.369Z,1.15
2022-08-22T22:23:52.566Z,1.20
2022-08-22T22:26:21.444Z,1.30
2022-08-22T22:28:50.365Z,0.88
2022-08-22T22:31:20.190Z,1.20
2022-08-22T22:33:48.418Z,1.70
2022-08-22T22:36:19.619Z,1.10
2022-08-22T22:38:48.229Z,0.98
2022-08-22T22:41:20.280Z,1.05
2022-08-22T22:43:48.417Z,1.23
2022-08-22T22:46:16.711Z,1.00
2022-08-22T22:48:46.318Z,1.15
2022-08-22T22:51:14.936Z,1.15
2022-08-22T22:53:44.841Z,1.60
2022-08-22T22:56:15.901Z,1.00
2022-08-22T22:58:44.898Z,1.00
2022-08-22T23:01:15.977Z,1.17
2022-08-22T23:03:48.323Z,1.08
2022-08-22T23:06:19.670Z,1.10
2022-08-22T23:08:49.003Z,1.15
2022-08-22T23:11:20.202Z,1.02
2022-08-22T23:13:49.375Z,1.27
2022-08-22T23:16:20.476Z,1.33
2022-08-22T23:18:50.221Z,0.98
2022-08-22T23:21:21.019Z,0.77
2022-08-22T23:23:50.428Z,1.17
2022-08-22T23:26:18.953Z,1.00
2022-08-22T23:28:47.394Z,1.23
2022-08-22T23:31:18.665Z,1.15
2022-08-22T23:33:47.621Z,1.20
2022-08-22T23:36:20.155Z,1.08
2022-08-22T23:38:49.743Z,0.80
2022-08-22T23:41:19.226Z,1.00
2022-08-22T23:43:50.317Z,1.10
2022-08-22T23:46:20.838Z,1.20
2022-08-22T23:48:49.813Z,0.98
2022-08-22T23:51:23.198Z,1.20
2022-08-22T23:53:51.983Z,1.00
2022-08-22T23:56:22.837Z,1.08
2022-08-22T23:58:53.293Z,1.15
